Time;durP1;ratioP1;P1;durP2;ratioP2;P2;SDS_P1;SDS_P2;PMS_P1;PMS_P2;Temp;Humidity;BMP_temperature;BMP_pressure;BME280_temperature;BME280_humidity;BME280_pressure;Samples;Min_cycle;Max_cycle;Signal;HPM_P1;HPM_P2
2021/05/07 00:00:56;;;;;;;16.17;7.90;;;5.20;81.20;;;;;;5111834;28;20028;-61
2021/05/07 00:03:21;;;;;;;13.52;7.32;;;5.10;81.50;;;;;;5093737;28;20035;-60
2021/05/07 00:05:54;;;;;;;9.98;6.53;;;5.20;81.50;;;;;;5096457;28;20467;-61
2021/05/07 00:08:27;;;;;;;14.40;7.50;;;5.20;81.10;;;;;;5091364;28;20070;-60
2021/05/07 00:10:53;;;;;;;11.20;7.72;;;5.20;81.10;;;;;;5091516;28;20016;-61
2021/05/07 00:13:19;;;;;;;12.88;6.88;;;5.20;81.20;;;;;;5091854;28;20020;-60
2021/05/07 00:15:44;;;;;;;11.05;7.20;;;5.10;81.00;;;;;;5072584;28;20039;-60
2021/05/07 00:18:10;;;;;;;11.25;6.88;;;5.10;81.10;;;;;;5091985;28;20500;-60
2021/05/07 00:20:35;;;;;;;13.02;7.05;;;5.10;81.10;;;;;;5090707;28;20048;-60
2021/05/07 00:23:01;;;;;;;10.63;6.82;;;5.10;81.40;;;;;;5091583;28;20020;-60
2021/05/07 00:25:27;;;;;;;10.63;7.35;;;5.00;81.30;;;;;;5101291;28;20023;-60
2021/05/07 00:28:06;;;;;;;15.23;7.05;;;5.00;81.40;;;;;;5111649;28;20386;-60
2021/05/07 00:30:32;;;;;;;11.52;7.03;;;5.00;81.50;;;;;;5093337;28;20458;-60
2021/05/07 00:32:57;;;;;;;15.93;7.07;;;5.00;81.40;;;;;;5111581;28;20035;-60
2021/05/07 00:35:23;;;;;;;11.88;6.68;;;5.10;81.10;;;;;;5111214;28;20031;-60
2021/05/07 00:37:49;;;;;;;12.20;7.60;;;5.10;81.10;;;;;;5092472;28;20869;-60
2021/05/07 00:40:15;;;;;;;11.35;7.05;;;5.10;81.00;;;;;;5111505;28;20035;-60
2021/05/07 00:42:40;;;;;;;14.45;6.50;;;5.10;81.00;;;;;;5092376;28;20039;-60
2021/05/07 00:45:11;;;;;;;12.98;7.40;;;5.10;81.10;;;;;;5111210;28;20023;-60
2021/05/07 00:47:43;;;;;;;11.88;7.18;;;5.00;81.20;;;;;;5111070;28;20026;-60
2021/05/07 00:50:10;;;;;;;14.65;7.22;;;5.00;81.20;;;;;;5093892;28;20040;-61
2021/05/07 00:52:37;;;;;;;12.40;7.32;;;5.00;81.80;;;;;;5092141;28;20031;-60
2021/05/07 00:55:06;;;;;;;11.38;7.13;;;4.90;81.60;;;;;;5092905;28;20023;-60
2021/05/07 00:57:32;;;;;;;12.85;6.95;;;4.90;81.70;;;;;;5092633;28;20423;-61
2021/05/07 00:59:58;;;;;;;13.93;7.18;;;4.90;81.80;;;;;;5092123;28;20130;-60
2021/05/07 01:02:24;;;;;;;12.88;7.00;;;4.90;82.30;;;;;;5111559;28;20140;-60
2021/05/07 01:04:50;;;;;;;12.10;7.63;;;4.80;81.90;;;;;;5075818;28;20397;-60
2021/05/07 01:07:16;;;;;;;9.75;6.93;;;4.80;82.00;;;;;;5093082;28;20047;-60
2021/05/07 01:09:42;;;;;;;16.25;7.78;;;4.80;81.90;;;;;;5109362;28;20053;-60
2021/05/07 01:12:08;;;;;;;13.18;7.22;;;4.80;81.90;;;;;;5111427;28;20035;-60
2021/05/07 01:14:35;;;;;;;13.02;6.80;;;4.80;81.80;;;;;;5092387;28;20019;-60
2021/05/07 01:17:00;;;;;;;14.13;7.38;;;4.90;81.70;;;;;;5111052;28;20051;-60
2021/05/07 01:19:27;;;;;;;13.55;7.15;;;4.80;82.00;;;;;;5110433;28;20128;-60
2021/05/07 01:21:53;;;;;;;13.20;6.80;;;4.80;82.20;;;;;;5110026;28;20089;-60
2021/05/07 01:24:21;;;;;;;15.13;7.35;;;4.70;82.10;;;;;;5092425;28;20023;-60
2021/05/07 01:26:47;;;;;;;11.90;7.03;;;4.70;82.40;;;;;;5108236;28;20381;-60
2021/05/07 01:29:12;;;;;;;10.45;7.20;;;4.80;82.20;;;;;;5110714;28;20028;-60
2021/05/07 01:31:41;;;;;;;13.40;7.65;;;4.90;82.20;;;;;;5109904;28;20455;-60
2021/05/07 01:34:07;;;;;;;12.82;7.65;;;4.90;81.80;;;;;;5092921;28;20042;-60
2021/05/07 01:36:33;;;;;;;11.35;7.88;;;5.00;82.00;;;;;;5091924;28;20031;-60
2021/05/07 01:38:59;;;;;;;13.07;8.18;;;5.00;81.70;;;;;;5110022;28;20035;-60
2021/05/07 01:41:24;;;;;;;12.70;8.13;;;5.00;82.20;;;;;;5092142;28;20019;-60
2021/05/07 01:43:50;;;;;;;10.43;7.30;;;5.00;82.10;;;;;;5109884;28;20020;-60
2021/05/07 01:46:15;;;;;;;12.45;8.00;;;5.00;81.90;;;;;;5110670;28;20374;-60
2021/05/07 01:48:41;;;;;;;15.45;7.93;;;5.00;82.30;;;;;;5109800;28;20077;-60
2021/05/07 01:51:07;;;;;;;11.93;8.23;;;5.10;81.90;;;;;;5110348;28;20032;-60
2021/05/07 01:53:33;;;;;;;11.35;7.85;;;5.10;81.40;;;;;;5110246;28;20099;-60
2021/05/07 01:55:59;;;;;;;12.55;8.30;;;5.20;81.40;;;;;;5089697;28;20109;-60
2021/05/07 01:58:25;;;;;;;12.45;7.68;;;5.20;81.70;;;;;;5109849;28;20564;-61
2021/05/07 02:00:51;;;;;;;15.80;9.35;;;5.10;81.70;;;;;;5091620;28;20099;-60
2021/05/07 02:03:17;;;;;;;12.95;8.57;;;5.20;81.80;;;;;;5110772;28;20403;-61
2021/05/07 02:05:42;;;;;;;12.88;8.80;;;5.20;81.40;;;;;;5108738;28;20110;-61
2021/05/07 02:08:08;;;;;;;14.95;9.52;;;5.30;81.30;;;;;;5110366;28;20141;-61
2021/05/07 02:10:34;;;;;;;14.43;9.27;;;5.30;81.40;;;;;;5092104;28;20034;-61
2021/05/07 02:13:02;;;;;;;17.38;9.60;;;5.40;81.20;;;;;;5110134;28;20032;-61
2021/05/07 02:15:28;;;;;;;15.63;9.85;;;5.40;81.50;;;;;;5092000;28;20022;-61
2021/05/07 02:17:53;;;;;;;15.65;9.63;;;5.50;81.20;;;;;;5109639;28;20020;-61
2021/05/07 02:20:20;;;;;;;13.43;8.75;;;5.50;81.40;;;;;;5109860;28;20405;-61
2021/05/07 02:22:47;;;;;;;14.60;7.82;;;5.50;81.20;;;;;;5098168;28;20450;-61
2021/05/07 02:25:13;;;;;;;10.93;7.15;;;5.50;79.80;;;;;;5096806;28;20024;-61
2021/05/07 02:27:39;;;;;;;12.35;7.25;;;5.60;79.40;;;;;;5115550;28;20032;-61
2021/05/07 02:30:06;;;;;;;10.60;6.30;;;5.70;78.90;;;;;;5117231;28;20015;-61
2021/05/07 02:32:31;;;;;;;8.77;5.75;;;5.70;78.10;;;;;;5116786;28;20030;-61
2021/05/07 02:34:57;;;;;;;9.80;5.45;;;5.80;77.40;;;;;;5097934;28;20099;-61
2021/05/07 02:37:22;;;;;;;10.45;6.20;;;5.90;77.50;;;;;;5098389;28;20032;-61
2021/05/07 02:39:48;;;;;;;10.82;5.68;;;5.80;77.70;;;;;;5116310;28;20350;-61
2021/05/07 02:42:14;;;;;;;9.43;5.95;;;5.80;77.90;;;;;;5116533;28;20027;-61
2021/05/07 02:44:39;;;;;;;8.35;5.30;;;5.80;78.70;;;;;;5115994;28;20020;-61
2021/05/07 02:47:05;;;;;;;8.18;5.00;;;5.80;77.90;;;;;;5116993;28;20046;-61
2021/05/07 02:49:31;;;;;;;10.50;5.35;;;5.80;77.30;;;;;;5116049;28;20415;-61
2021/05/07 02:51:57;;;;;;;12.05;5.88;;;5.90;77.80;;;;;;5097870;28;20023;-61
2021/05/07 02:54:23;;;;;;;8.18;5.40;;;5.90;78.70;;;;;;5098500;28;20026;-61
2021/05/07 02:56:48;;;;;;;9.95;6.38;;;5.80;79.20;;;;;;5095391;28;20539;-61
2021/05/07 02:59:15;;;;;;;10.88;6.35;;;5.70;80.40;;;;;;5116936;28;20027;-61
2021/05/07 03:01:41;;;;;;;12.88;6.40;;;5.60;79.80;;;;;;5115723;28;20525;-61
2021/05/07 03:04:07;;;;;;;11.05;6.18;;;5.70;79.00;;;;;;5116576;28;20055;-60
2021/05/07 03:06:32;;;;;;;12.77;6.88;;;5.80;78.90;;;;;;5116153;28;20015;-60
2021/05/07 03:08:58;;;;;;;14.40;6.63;;;5.90;79.10;;;;;;5116153;28;20544;-60
2021/05/07 03:11:23;;;;;;;10.30;7.43;;;6.00;79.30;;;;;;5116040;28;20432;-60
2021/05/07 03:13:49;;;;;;;9.98;6.78;;;6.00;79.60;;;;;;5116078;28;20020;-60
2021/05/07 03:16:15;;;;;;;9.85;6.20;;;6.00;79.50;;;;;;5116773;28;20030;-60
2021/05/07 03:18:40;;;;;;;13.82;6.65;;;6.10;79.90;;;;;;5114887;28;20032;-60
2021/05/07 03:21:06;;;;;;;10.90;5.57;;;6.00;80.30;;;;;;5098156;28;20027;-60
2021/05/07 03:23:32;;;;;;;8.95;4.90;;;5.80;80.10;;;;;;5116152;28;20024;-60
2021/05/07 03:25:58;;;;;;;8.57;4.20;;;5.30;80.50;;;;;;5113511;28;20027;-61
2021/05/07 03:28:23;;;;;;;6.60;3.60;;;5.00;81.30;;;;;;5116008;28;20069;-61
2021/05/07 03:30:49;;;;;;;4.35;2.80;;;4.70;81.60;;;;;;5115739;28;20382;-60
2021/05/07 03:33:14;;;;;;;4.13;2.70;;;4.60;82.30;;;;;;5113452;28;20106;-60
2021/05/07 03:35:40;;;;;;;3.80;2.40;;;4.50;82.60;;;;;;5111543;28;20023;-60
2021/05/07 03:38:06;;;;;;;3.47;2.25;;;4.10;83.20;;;;;;5095034;28;20043;-60
2021/05/07 03:40:31;;;;;;;2.67;1.85;;;4.00;83.00;;;;;;5112830;28;20106;-60
2021/05/07 03:42:57;;;;;;;5.20;2.25;;;3.90;83.60;;;;;;5094148;28;20038;-60
2021/05/07 03:45:23;;;;;;;4.63;2.40;;;3.90;84.10;;;;;;5112547;28;20118;-60
2021/05/07 03:47:48;;;;;;;4.60;2.20;;;3.70;84.00;;;;;;5112206;28;20024;-60
2021/05/07 03:50:14;;;;;;;3.03;1.95;;;3.60;84.50;;;;;;5112659;28;20088;-60
2021/05/07 03:52:43;;;;;;;3.50;2.30;;;3.60;85.00;;;;;;5111942;28;20381;-60
2021/05/07 03:55:09;;;;;;;3.95;2.58;;;3.60;85.10;;;;;;5093478;28;20458;-60
2021/05/07 03:57:35;;;;;;;3.40;2.20;;;3.70;85.40;;;;;;5110499;28;20084;-61
2021/05/07 04:00:01;;;;;;;9.10;2.38;;;3.70;85.60;;;;;;5112658;28;20016;-60
2021/05/07 04:02:27;;;;;;;5.22;1.95;;;3.70;85.60;;;;;;5094092;28;20024;-60
2021/05/07 04:04:54;;;;;;;3.50;1.98;;;3.50;86.20;;;;;;5111545;28;20024;-60
2021/05/07 04:07:20;;;;;;;3.47;1.83;;;3.50;86.40;;;;;;5094124;28;20016;-60
2021/05/07 04:09:51;;;;;;;2.95;1.90;;;3.10;87.00;;;;;;5111659;28;20063;-60
2021/05/07 04:14:42;;;;;;;3.30;1.70;;;3.20;86.90;;;;;;5115370;27;20059;-60
2021/05/07 04:17:07;;;;;;;3.35;2.00;;;2.90;86.30;;;;;;5121867;27;20602;-60
2021/05/07 04:19:33;;;;;;;2.78;1.70;;;2.70;87.10;;;;;;5121786;27;20058;-60
2021/05/07 04:21:59;;;;;;;3.45;1.75;;;2.50;87.90;;;;;;5117009;27;20043;-60
2021/05/07 04:24:24;;;;;;;3.80;2.25;;;2.40;88.40;;;;;;5107952;28;20464;-60
2021/05/07 04:26:50;;;;;;;221.13;93.10;;;2.40;88.70;;;;;;5106495;28;20019;-66
2021/05/07 04:29:16;;;;;;;79.72;31.95;;;2.60;88.50;;;;;;5092819;27;20172;-60
2021/05/07 04:31:41;;;;;;;5.43;3.47;;;2.70;88.20;;;;;;5115908;27;20027;-59
2021/05/07 04:34:07;;;;;;;5.50;2.92;;;2.80;88.10;;;;;;5121855;27;20409;-59
2021/05/07 04:36:33;;;;;;;5.35;2.58;;;2.80;87.50;;;;;;5113005;27;20107;-59
2021/05/07 04:38:59;;;;;;;4.97;2.70;;;3.00;86.70;;;;;;5092224;28;20023;-60
2021/05/07 04:41:24;;;;;;;4.47;2.50;;;3.10;86.40;;;;;;5090037;28;20034;-61
2021/05/07 04:43:51;;;;;;;3.17;2.28;;;3.10;86.60;;;;;;5091516;28;20028;-60
2021/05/07 04:46:16;;;;;;;3.53;1.95;;;3.20;86.80;;;;;;5092369;28;20039;-60
2021/05/07 04:48:42;;;;;;;3.78;2.47;;;3.40;86.00;;;;;;5109985;28;20437;-60
2021/05/07 04:51:07;;;;;;;3.97;2.05;;;3.50;86.70;;;;;;5111148;28;20016;-60
2021/05/07 04:53:33;;;;;;;3.58;2.10;;;3.40;86.80;;;;;;5108702;28;20032;-60
2021/05/07 04:55:59;;;;;;;3.78;2.20;;;3.50;86.90;;;;;;5086645;28;20030;-59
2021/05/07 04:58:24;;;;;;;3.60;2.15;;;3.60;86.50;;;;;;5090358;28;20059;-59
2021/05/07 05:00:50;;;;;;;5.25;2.45;;;3.70;86.70;;;;;;5071476;28;20024;-60
2021/05/07 05:03:16;;;;;;;4.82;2.50;;;3.90;86.10;;;;;;5090016;28;20057;-59
2021/05/07 05:05:41;;;;;;;5.13;2.45;;;4.00;85.40;;;;;;5117980;27;20462;-59
2021/05/07 05:08:07;;;;;;;4.03;2.35;;;4.20;85.10;;;;;;5101354;27;20008;-58
2021/05/07 05:10:32;;;;;;;2.60;2.10;;;4.30;84.70;;;;;;5127493;27;20019;-58
2021/05/07 05:12:58;;;;;;;5.40;2.47;;;4.50;84.30;;;;;;5130691;27;20043;-58
2021/05/07 05:15:24;;;;;;;2.95;2.20;;;4.70;83.80;;;;;;5130814;27;20105;-58
2021/05/07 05:17:50;;;;;;;4.20;2.38;;;4.60;83.90;;;;;;5130156;27;20035;-59
2021/05/07 05:20:16;;;;;;;2.90;2.00;;;4.50;84.30;;;;;;5130949;27;20043;-59
2021/05/07 05:22:42;;;;;;;3.50;2.30;;;4.60;84.20;;;;;;5109755;28;20024;-59
2021/05/07 05:25:08;;;;;;;2.85;2.15;;;4.20;84.70;;;;;;5117768;27;20465;-59
2021/05/07 05:27:35;;;;;;;3.78;2.42;;;4.30;84.90;;;;;;5117793;27;20036;-59
2021/05/07 05:30:02;;;;;;;5.65;2.80;;;4.50;84.60;;;;;;5120079;27;20022;-60
2021/05/07 05:32:27;;;;;;;4.45;2.67;;;4.50;83.90;;;;;;5094195;28;20140;-59
2021/05/07 05:34:53;;;;;;;4.00;2.83;;;4.60;83.70;;;;;;5074408;28;20065;-61
2021/05/07 05:37:19;;;;;;;4.28;2.67;;;4.60;83.80;;;;;;5109519;28;20088;-61
2021/05/07 05:39:45;;;;;;;6.45;2.80;;;4.60;83.70;;;;;;5109209;28;20493;-62
2021/05/07 05:42:11;;;;;;;4.07;2.67;;;4.70;83.70;;;;;;5094621;27;20028;-61
2021/05/07 05:44:36;;;;;;;3.80;2.50;;;4.70;83.80;;;;;;5119365;27;20022;-62
2021/05/07 05:47:02;;;;;;;21.33;10.07;;;5.00;83.00;;;;;;5105776;27;20019;-63
2021/05/07 05:49:27;;;;;;;28.60;13.63;;;5.20;81.90;;;;;;5130185;27;20026;-64
2021/05/07 05:51:53;;;;;;;68.07;28.52;;;6.60;79.10;;;;;;5130041;27;20050;-62
2021/05/07 05:54:19;;;;;;;5.75;3.00;;;8.50;74.20;;;;;;5123793;27;20032;-63
2021/05/07 05:56:46;;;;;;;3.42;1.80;;;10.20;67.10;;;;;;5098811;27;20052;-63
2021/05/07 05:59:11;;;;;;;3.30;2.05;;;11.80;63.70;;;;;;5083109;27;20509;-62
2021/05/07 06:01:37;;;;;;;4.13;1.70;;;13.00;61.30;;;;;;5117058;27;20022;-61
2021/05/07 06:04:04;;;;;;;1.58;1.02;;;13.60;59.10;;;;;;5116457;27;20020;-61
2021/05/07 06:06:29;;;;;;;2.35;1.38;;;13.80;58.00;;;;;;5100899;28;20739;-61
2021/05/07 06:08:55;;;;;;;1.42;0.98;;;13.50;55.50;;;;;;5119093;27;20494;-61
2021/05/07 06:11:21;;;;;;;1.50;1.23;;;14.40;57.10;;;;;;5118379;27;20020;-60
2021/05/07 06:13:46;;;;;;;3.05;1.17;;;15.10;56.10;;;;;;5101099;27;20021;-60
2021/05/07 06:16:12;;;;;;;4.80;1.38;;;15.50;52.70;;;;;;5120192;27;20571;-60
2021/05/07 06:18:37;;;;;;;1.85;1.52;;;16.30;54.10;;;;;;5100133;28;20035;-61
2021/05/07 06:21:03;;;;;;;3.83;1.00;;;16.90;51.70;;;;;;5101066;28;20040;-61
2021/05/07 06:23:29;;;;;;;2.90;2.17;;;17.00;51.60;;;;;;5099389;28;20039;-60
2021/05/07 06:25:55;;;;;;;1.45;1.20;;;17.30;49.80;;;;;;5096259;28;20024;-61
2021/05/07 06:28:20;;;;;;;2.05;1.45;;;17.80;47.60;;;;;;5096109;28;20024;-61
2021/05/07 06:30:46;;;;;;;1.38;0.93;;;18.40;48.90;;;;;;5107670;28;20027;-61
2021/05/07 06:33:12;;;;;;;1.63;1.05;;;18.10;47.80;;;;;;5100592;28;20047;-62
2021/05/07 06:35:37;;;;;;;2.20;1.30;;;18.50;47.40;;;;;;5117397;28;20118;-61
2021/05/07 06:38:08;;;;;;;1.13;1.02;;;18.90;46.70;;;;;;5120170;28;20095;-61
2021/05/07 06:40:34;;;;;;;2.35;1.38;;;18.90;44.00;;;;;;5118740;28;20028;-61
2021/05/07 06:43:00;;;;;;;1.55;1.08;;;19.10;44.90;;;;;;5118395;28;20026;-61
2021/05/07 06:45:25;;;;;;;1.63;1.23;;;18.90;42.70;;;;;;5114978;28;20024;-61
2021/05/07 06:47:51;;;;;;;1.55;1.20;;;19.00;44.50;;;;;;5113018;28;20443;-60
2021/05/07 06:50:18;;;;;;;1.88;1.23;;;18.60;46.00;;;;;;5117178;28;20034;-60
2021/05/07 06:52:44;;;;;;;1.35;1.10;;;18.10;44.70;;;;;;5117379;28;20027;-59
2021/05/07 06:55:11;;;;;;;2.25;1.90;;;17.60;47.40;;;;;;5110044;28;20038;-59
2021/05/07 06:57:37;;;;;;;3.25;1.77;;;17.50;47.00;;;;;;5107191;28;20358;-59
2021/05/07 07:00:04;;;;;;;2.30;1.33;;;17.40;46.10;;;;;;5109174;28;20031;-60
2021/05/07 07:02:30;;;;;;;4.50;2.90;;;17.00;47.20;;;;;;5091931;28;20023;-59
2021/05/07 07:04:56;;;;;;;3.17;1.77;;;16.60;48.30;;;;;;5119096;28;20018;-59
2021/05/07 07:07:24;;;;;;;2.88;1.88;;;15.40;51.00;;;;;;5118053;27;20027;-59
2021/05/07 07:09:50;;;;;;;2.78;1.98;;;14.90;53.10;;;;;;5121058;27;20031;-59
2021/05/07 07:12:15;;;;;;;3.45;1.83;;;14.60;54.50;;;;;;5123796;27;20031;-59
2021/05/07 07:14:41;;;;;;;3.63;1.90;;;14.30;54.00;;;;;;5102999;27;20156;-59
2021/05/07 07:17:07;;;;;;;4.50;2.65;;;14.30;54.30;;;;;;5122125;27;20024;-59
2021/05/07 07:19:33;;;;;;;4.13;2.70;;;14.70;54.50;;;;;;5122904;27;20104;-60
2021/05/07 07:21:58;;;;;;;4.07;2.08;;;14.50;56.90;;;;;;5112363;27;20023;-60
2021/05/07 07:24:25;;;;;;;3.17;2.25;;;15.30;55.20;;;;;;5112354;28;20024;-61
2021/05/07 07:26:50;;;;;;;3.45;2.10;;;17.60;47.90;;;;;;5110028;28;20370;-61
2021/05/07 07:29:16;;;;;;;2.40;1.92;;;15.70;52.40;;;;;;5094595;28;20023;-60
2021/05/07 07:31:41;;;;;;;4.78;2.08;;;17.10;48.40;;;;;;5111464;28;20028;-61
2021/05/07 07:34:07;;;;;;;3.90;2.20;;;18.10;48.90;;;;;;5119550;27;20415;-65
2021/05/07 07:36:33;;;;;;;77.38;41.70;;;18.00;47.10;;;;;;5121432;27;20016;-63
2021/05/07 07:38:58;;;;;;;24.85;12.52;;;18.00;48.40;;;;;;5102573;27;20473;-60
2021/05/07 07:41:24;;;;;;;3.42;2.58;;;18.30;47.90;;;;;;5128906;27;20107;-61
2021/05/07 07:43:50;;;;;;;6.85;2.38;;;18.90;46.30;;;;;;5132273;27;20068;-61
2021/05/07 07:46:16;;;;;;;3.88;2.40;;;18.70;45.70;;;;;;5132659;27;20031;-61
2021/05/07 07:48:41;;;;;;;5.30;2.72;;;18.40;45.90;;;;;;5131896;27;20065;-61
2021/05/07 07:51:07;;;;;;;2.95;2.40;;;18.70;46.70;;;;;;5133050;27;20027;-61
2021/05/07 07:53:33;;;;;;;4.80;3.10;;;18.50;44.40;;;;;;5122827;27;20031;-61
2021/05/07 07:55:59;;;;;;;4.03;2.70;;;19.00;45.80;;;;;;5129754;27;20025;-62
2021/05/07 07:58:25;;;;;;;4.13;2.55;;;18.60;44.50;;;;;;5132639;27;20031;-61
2021/05/07 08:00:51;;;;;;;5.13;3.03;;;18.00;47.60;;;;;;5096076;27;20027;-61
2021/05/07 08:03:16;;;;;;;4.20;3.50;;;17.20;47.80;;;;;;5114527;27;20032;-61
2021/05/07 08:05:42;;;;;;;4.65;3.30;;;17.90;48.50;;;;;;5131222;27;20076;-61
2021/05/07 08:08:07;;;;;;;7.07;4.25;;;17.90;47.00;;;;;;5132162;27;20368;-61
2021/05/07 08:10:33;;;;;;;5.90;4.07;;;16.00;51.80;;;;;;5113287;27;20122;-61
2021/05/07 08:12:59;;;;;;;4.95;3.15;;;14.40;55.20;;;;;;5096246;27;20479;-61
2021/05/07 08:15:26;;;;;;;5.35;3.50;;;13.50;56.60;;;;;;5106573;27;20022;-62
2021/05/07 08:17:52;;;;;;;5.68;2.92;;;13.90;55.80;;;;;;5120975;27;20023;-62
2021/05/07 08:20:17;;;;;;;4.80;3.13;;;15.00;52.20;;;;;;5122246;27;20035;-63
2021/05/07 08:22:43;;;;;;;6.50;3.30;;;15.40;52.30;;;;;;5101037;27;20098;-63
2021/05/07 08:25:11;;;;;;;4.22;2.90;;;14.60;54.60;;;;;;5120319;27;20027;-62
2021/05/07 08:27:41;;;;;;;5.40;2.72;;;14.30;54.10;;;;;;5099746;27;20102;-62
2021/05/07 08:30:12;;;;;;;7.10;3.90;;;14.50;52.70;;;;;;5105547;28;20032;-61
2021/05/07 08:32:38;;;;;;;6.00;4.00;;;15.10;53.20;;;;;;5110784;28;20031;-63
2021/05/07 08:35:04;;;;;;;5.38;3.90;;;16.20;51.00;;;;;;5093720;28;20024;-62
2021/05/07 08:37:29;;;;;;;7.07;4.43;;;15.80;51.40;;;;;;5110916;28;20427;-62
2021/05/07 08:39:55;;;;;;;5.47;3.72;;;16.50;51.20;;;;;;5110416;28;20043;-63
2021/05/07 08:42:21;;;;;;;5.28;3.97;;;16.30;51.80;;;;;;5092975;28;20038;-62
2021/05/07 08:44:48;;;;;;;8.13;4.00;;;15.60;52.80;;;;;;5110391;28;20032;-63
2021/05/07 08:47:17;;;;;;;6.13;4.00;;;15.90;52.10;;;;;;5093277;28;20031;-63
2021/05/07 08:49:43;;;;;;;5.20;3.85;;;15.70;52.60;;;;;;5110244;28;20031;-62
2021/05/07 08:52:08;;;;;;;4.93;3.88;;;15.60;49.80;;;;;;5076154;28;20034;-62
2021/05/07 08:54:34;;;;;;;6.30;4.00;;;16.00;50.90;;;;;;5110792;28;20493;-63
2021/05/07 08:57:00;;;;;;;10.77;6.30;;;16.50;50.20;;;;;;5109015;28;20103;-64
2021/05/07 08:59:26;;;;;;;8.30;5.07;;;16.10;51.00;;;;;;5110303;28;20119;-61
2021/05/07 09:01:51;;;;;;;7.07;3.90;;;16.50;50.90;;;;;;5112008;27;20028;-65
2021/05/07 09:04:18;;;;;;;7.95;3.47;;;15.40;50.20;;;;;;5102198;27;20046;-63
2021/05/07 09:06:52;;;;;;;9.35;4.13;;;15.50;51.80;;;;;;5120600;27;20015;-63
2021/05/07 09:09:19;;;;;;;8.23;3.83;;;15.40;51.60;;;;;;5082450;27;20080;-63
